createdAt,value
2023-03-13T00:01:15.466Z,11.95
2023-03-13T00:03:43.233Z,11.90
2023-03-13T00:06:10.845Z,11.72
2023-03-13T00:08:38.352Z,11.95
2023-03-13T00:11:07.083Z,11.72
2023-03-13T00:13:35.342Z,11.79
2023-03-13T00:16:04.713Z,11.68
2023-03-13T00:18:32.615Z,11.73
2023-03-13T00:21:01.003Z,11.57
2023-03-13T00:23:29.172Z,11.79
2023-03-13T00:26:00.857Z,11.53
2023-03-13T00:28:31.818Z,11.47
2023-03-13T00:31:03.241Z,11.49
2023-03-13T00:33:32.331Z,11.60
2023-03-13T00:36:00.976Z,11.65
2023-03-13T00:38:29.670Z,11.63
2023-03-13T00:41:01.291Z,11.42
2023-03-13T00:43:28.950Z,11.32
2023-03-13T00:45:56.665Z,11.35
2023-03-13T00:48:24.530Z,11.17
2023-03-13T00:50:52.020Z,11.21
2023-03-13T00:53:19.599Z,11.40
2023-03-13T00:55:54.939Z,11.40
2023-03-13T00:58:23.298Z,11.39
2023-03-13T01:00:51.299Z,11.33
2023-03-13T01:03:19.531Z,11.60
2023-03-13T01:05:55.204Z,11.50
2023-03-13T01:08:23.105Z,11.62
2023-03-13T01:10:50.756Z,11.51
2023-03-13T01:13:18.436Z,11.59
2023-03-13T01:15:46.108Z,11.57
2023-03-13T01:18:15.682Z,11.57
2023-03-13T01:20:43.419Z,11.49
2023-03-13T01:23:11.087Z,11.66
2023-03-13T01:25:38.779Z,11.54
2023-03-13T01:28:06.446Z,11.76
2023-03-13T01:30:34.119Z,11.75
2023-03-13T01:33:02.757Z,11.60
2023-03-13T01:35:30.411Z,11.83
2023-03-13T01:37:59.916Z,11.97
2023-03-13T01:40:27.619Z,11.81
2023-03-13T01:42:57.021Z,11.74
2023-03-13T01:45:43.411Z,11.80
2023-03-13T01:48:11.091Z,11.77
2023-03-13T01:50:47.500Z,11.75
2023-03-13T01:53:34.829Z,12.00
2023-03-13T01:56:05.641Z,11.95
2023-03-13T01:58:33.289Z,11.96
2023-03-13T02:01:01.850Z,12.05
2023-03-13T02:03:29.852Z,11.84
2023-03-13T02:06:01.394Z,11.77
2023-03-13T02:08:32.860Z,11.74
2023-03-13T02:11:08.090Z,11.65
2023-03-13T02:13:35.783Z,11.70
2023-03-13T02:16:05.705Z,11.87
2023-03-13T02:18:33.450Z,11.72
2023-03-13T02:21:06.188Z,11.80
2023-03-13T02:23:54.051Z,11.89
2023-03-13T02:26:21.752Z,11.90
2023-03-13T02:28:50.617Z,11.83
2023-03-13T02:31:19.710Z,11.76
2023-03-13T02:33:48.062Z,11.72
2023-03-13T02:36:19.817Z,11.57
2023-03-13T02:38:55.552Z,11.52
2023-03-13T02:41:25.450Z,11.58
2023-03-13T02:43:53.111Z,11.55
2023-03-13T02:46:21.665Z,11.78
2023-03-13T02:48:54.712Z,11.61
2023-03-13T02:51:26.996Z,11.56
2023-03-13T02:53:58.027Z,11.60
2023-03-13T02:56:27.319Z,11.66
2023-03-13T02:58:56.418Z,11.82
2023-03-13T03:01:26.666Z,11.79
2023-03-13T03:03:54.391Z,11.75
2023-03-13T03:06:22.039Z,11.68
2023-03-13T03:08:50.725Z,11.58
2023-03-13T03:11:19.065Z,11.57
2023-03-13T03:13:51.411Z,11.47
2023-03-13T03:16:19.953Z,11.22
2023-03-13T03:18:47.773Z,11.19
2023-03-13T03:21:15.460Z,11.16
2023-03-13T03:23:43.212Z,11.13
2023-03-13T03:26:10.974Z,11.21
2023-03-13T03:28:39.797Z,11.16
2023-03-13T03:31:13.324Z,10.99
2023-03-13T03:33:41.873Z,10.92
2023-03-13T03:36:14.078Z,10.85
2023-03-13T03:38:42.494Z,10.94
2023-03-13T03:41:14.412Z,11.04
2023-03-13T03:43:42.305Z,10.97
2023-03-13T03:46:12.197Z,11.12
2023-03-13T03:48:39.911Z,10.96
2023-03-13T03:51:09.575Z,10.84
2023-03-13T03:53:40.715Z,11.02
2023-03-13T03:56:08.855Z,10.86
2023-03-13T03:58:41.064Z,10.90
2023-03-13T04:01:17.392Z,10.85
2023-03-13T04:03:45.098Z,10.70
2023-03-13T04:06:14.045Z,10.82
2023-03-13T04:08:42.581Z,10.91
2023-03-13T04:11:12.812Z,10.94
2023-03-13T04:13:44.008Z,10.75
2023-03-13T04:16:11.819Z,10.90
2023-03-13T04:18:40.321Z,10.91
2023-03-13T04:21:09.178Z,10.89
2023-03-13T04:24:09.238Z,11.00
2023-03-13T04:26:38.828Z,10.96
2023-03-13T04:29:06.748Z,10.90
2023-03-13T04:32:09.827Z,10.99
2023-03-13T04:34:50.334Z,11.19
2023-03-13T04:37:38.299Z,11.24
2023-03-13T04:40:28.736Z,11.02
2023-03-13T04:43:06.894Z,11.15
2023-03-13T04:45:57.839Z,11.11
2023-03-13T04:48:44.164Z,11.14
2023-03-13T04:51:30.981Z,11.06
2023-03-13T04:54:14.006Z,11.15
2023-03-13T04:57:00.395Z,11.13
2023-03-13T04:59:37.608Z,11.06
2023-03-13T05:02:40.648Z,11.01
2023-03-13T05:05:26.989Z,10.96
2023-03-13T05:08:23.926Z,11.12
2023-03-13T05:11:11.850Z,11.26
2023-03-13T05:14:05.716Z,11.37
2023-03-13T05:17:01.994Z,11.39
2023-03-13T05:20:10.182Z,11.37
2023-03-13T05:22:56.786Z,11.30
2023-03-13T05:25:50.696Z,11.32
2023-03-13T05:28:38.574Z,11.25
2023-03-13T05:31:38.598Z,11.21
2023-03-13T05:34:24.585Z,11.18
2023-03-13T05:36:55.272Z,11.28
2023-03-13T05:39:32.306Z,11.25
2023-03-13T05:42:23.063Z,11.45
2023-03-13T05:45:04.576Z,11.35
2023-03-13T05:47:47.347Z,11.46
2023-03-13T05:50:35.244Z,11.40
2023-03-13T05:53:20.694Z,11.31
2023-03-13T05:56:07.049Z,11.24
2023-03-13T05:58:51.839Z,11.02
2023-03-13T06:01:34.683Z,10.98
2023-03-13T06:04:31.835Z,10.88
2023-03-13T06:06:59.717Z,10.92
2023-03-13T06:09:28.313Z,10.93
2023-03-13T06:11:57.547Z,10.91
2023-03-13T06:14:25.609Z,10.67
2023-03-13T06:17:12.640Z,10.65
2023-03-13T06:19:40.319Z,10.65
2023-03-13T06:22:07.973Z,10.74
2023-03-13T06:24:35.753Z,10.97
2023-03-13T06:27:03.385Z,11.02
2023-03-13T06:29:31.066Z,11.11
2023-03-13T06:31:58.851Z,11.33
2023-03-13T06:34:26.713Z,11.48
2023-03-13T06:36:54.441Z,11.51
2023-03-13T06:39:22.217Z,11.58
2023-03-13T06:41:50.042Z,11.73
2023-03-13T06:44:17.697Z,11.74
2023-03-13T06:46:45.435Z,11.76
2023-03-13T06:49:13.296Z,11.69
2023-03-13T06:51:41.146Z,11.64
2023-03-13T06:54:08.796Z,11.68
2023-03-13T06:56:36.599Z,11.82
2023-03-13T06:59:04.464Z,11.73
2023-03-13T07:01:32.116Z,11.86
2023-03-13T07:03:59.996Z,11.97
2023-03-13T07:06:27.801Z,12.12
2023-03-13T07:08:55.455Z,12.14
2023-03-13T07:11:23.362Z,12.33
2023-03-13T07:13:51.136Z,12.12
2023-03-13T07:16:18.935Z,12.13
2023-03-13T07:18:46.603Z,12.35
2023-03-13T07:21:14.451Z,12.26
2023-03-13T07:23:42.122Z,12.46
2023-03-13T07:26:14.376Z,12.38
2023-03-13T07:28:42.244Z,12.35
2023-03-13T07:31:14.782Z,12.54
2023-03-13T07:33:43.224Z,12.71
2023-03-13T07:36:11.674Z,13.01
2023-03-13T07:38:39.567Z,13.04
2023-03-13T07:41:07.394Z,12.86
2023-03-13T07:43:35.091Z,12.86
2023-03-13T07:46:04.137Z,12.98
2023-03-13T07:48:36.540Z,13.03
2023-03-13T07:51:05.730Z,13.12
2023-03-13T07:53:33.850Z,12.96
2023-03-13T07:56:06.087Z,13.08
2023-03-13T07:58:35.041Z,13.36
2023-03-13T08:01:08.771Z,13.44
2023-03-13T08:03:37.295Z,13.51
2023-03-13T08:06:06.991Z,13.55
2023-03-13T08:08:34.849Z,13.67
2023-03-13T08:11:03.668Z,13.91
2023-03-13T08:13:31.698Z,13.62
2023-03-13T08:16:03.547Z,13.59
2023-03-13T08:18:34.992Z,13.79
2023-03-13T08:21:04.076Z,13.90
2023-03-13T08:23:32.054Z,14.05
2023-03-13T08:26:07.385Z,14.21
2023-03-13T08:28:35.574Z,14.37
2023-03-13T08:31:23.400Z,14.42
2023-03-13T08:33:51.183Z,14.60
2023-03-13T08:36:20.975Z,14.62
2023-03-13T08:38:49.005Z,14.67
2023-03-13T08:41:17.858Z,14.89
2023-03-13T08:43:45.923Z,14.82
2023-03-13T08:46:14.283Z,15.06
2023-03-13T08:48:42.432Z,15.21
2023-03-13T08:51:11.578Z,15.29
2023-03-13T08:53:39.729Z,15.25
2023-03-13T08:56:09.129Z,15.12
2023-03-13T08:58:37.096Z,15.26
2023-03-13T09:01:05.794Z,15.37
2023-03-13T09:03:33.639Z,15.58
2023-03-13T09:06:02.341Z,15.59
2023-03-13T09:08:30.746Z,15.75
2023-03-13T09:11:02.853Z,15.63
2023-03-13T09:13:31.191Z,15.48
2023-03-13T09:16:00.196Z,15.80
2023-03-13T09:18:28.347Z,15.83
2023-03-13T09:20:58.204Z,15.97
2023-03-13T09:23:26.249Z,16.08
2023-03-13T09:25:55.053Z,16.16
2023-03-13T09:28:23.401Z,16.40
2023-03-13T09:30:51.095Z,16.43
2023-03-13T09:33:20.146Z,16.10
2023-03-13T09:35:51.314Z,16.38
2023-03-13T09:38:20.285Z,16.53
2023-03-13T09:41:04.898Z,16.25
2023-03-13T09:44:05.812Z,16.65
2023-03-13T09:46:33.495Z,16.52
2023-03-13T09:49:03.043Z,16.64
2023-03-13T09:51:36.799Z,16.40
2023-03-13T09:54:04.452Z,16.44
2023-03-13T09:56:37.411Z,16.35
2023-03-13T09:59:19.829Z,16.72
2023-03-13T10:01:48.755Z,16.85
2023-03-13T10:04:16.579Z,16.60
2023-03-13T10:06:45.066Z,16.72
2023-03-13T10:09:20.477Z,16.53
2023-03-13T10:11:53.845Z,16.63
2023-03-13T10:14:27.187Z,16.67
2023-03-13T10:17:03.910Z,16.77
2023-03-13T10:19:40.127Z,16.99
2023-03-13T10:22:16.860Z,16.78
2023-03-13T10:24:44.380Z,16.60
2023-03-13T10:27:14.275Z,16.66
2023-03-13T10:29:42.107Z,16.96
2023-03-13T10:32:13.020Z,16.91
2023-03-13T10:34:52.725Z,16.82
2023-03-13T10:37:22.009Z,16.91
2023-03-13T10:39:49.687Z,16.58
2023-03-13T10:42:33.747Z,16.38
2023-03-13T10:45:03.647Z,16.63
2023-03-13T10:47:38.351Z,16.67
2023-03-13T10:50:06.151Z,16.33
2023-03-13T10:52:44.556Z,16.21
2023-03-13T10:55:20.049Z,16.53
2023-03-13T10:58:01.247Z,16.54
2023-03-13T11:00:39.314Z,16.33
2023-03-13T11:03:08.117Z,16.69
2023-03-13T11:05:41.171Z,17.29
2023-03-13T11:08:27.909Z,17.31
2023-03-13T11:10:59.986Z,17.79
2023-03-13T11:13:46.227Z,18.20
2023-03-13T11:16:19.297Z,18.47
2023-03-13T11:18:46.905Z,18.33
2023-03-13T11:21:21.251Z,18.17
2023-03-13T11:23:54.216Z,18.46
2023-03-13T11:26:39.387Z,19.09
2023-03-13T11:29:27.362Z,20.05
2023-03-13T11:31:58.713Z,20.82
2023-03-13T11:34:52.729Z,20.88
2023-03-13T11:37:22.180Z,20.64
2023-03-13T11:40:01.432Z,20.76
2023-03-13T11:42:47.721Z,21.05
2023-03-13T11:45:28.627Z,21.55
2023-03-13T11:47:56.214Z,22.13
2023-03-13T11:50:29.184Z,21.92
2023-03-13T11:53:03.076Z,22.37
2023-03-13T11:55:46.116Z,22.95
2023-03-13T11:58:26.544Z,23.67
2023-03-13T12:01:29.952Z,23.10
2023-03-13T12:04:06.032Z,23.78
2023-03-13T12:06:40.794Z,23.73
2023-03-13T12:09:14.771Z,23.83
2023-03-13T12:11:49.395Z,24.11
2023-03-13T12:14:26.798Z,24.67
2023-03-13T12:17:00.330Z,24.94
2023-03-13T12:19:33.709Z,26.03
2023-03-13T12:22:08.687Z,26.12
2023-03-13T12:24:39.890Z,25.80
2023-03-13T12:27:19.630Z,25.95
2023-03-13T12:30:00.661Z,26.56
2023-03-13T12:32:31.384Z,25.46
2023-03-13T12:35:17.735Z,24.56
2023-03-13T12:38:14.991Z,24.08
2023-03-13T12:41:01.045Z,23.35
2023-03-13T12:43:33.131Z,23.70
2023-03-13T12:46:08.511Z,23.30
2023-03-13T12:48:38.726Z,24.46
2023-03-13T12:51:34.334Z,24.95
2023-03-13T12:54:02.115Z,26.27
2023-03-13T12:56:48.328Z,25.42
2023-03-13T12:59:18.328Z,25.85
2023-03-13T13:01:48.230Z,25.77
2023-03-13T13:04:18.020Z,27.03
2023-03-13T13:06:56.744Z,27.52
2023-03-13T13:09:25.891Z,27.34
2023-03-13T13:11:55.521Z,26.30
2023-03-13T13:14:23.192Z,27.48
2023-03-13T13:16:57.030Z,27.16
2023-03-13T13:19:24.719Z,26.50
2023-03-13T13:22:11.046Z,26.30
2023-03-13T13:24:40.450Z,27.10
2023-03-13T13:27:27.635Z,26.72
2023-03-13T13:29:56.361Z,26.09
2023-03-13T13:32:37.588Z,26.89
2023-03-13T13:35:23.865Z,28.42
2023-03-13T13:37:51.783Z,27.71
2023-03-13T13:40:20.777Z,27.56
2023-03-13T13:43:02.403Z,28.55
2023-03-13T13:45:31.442Z,28.10
2023-03-13T13:48:17.921Z,28.64
2023-03-13T13:51:05.243Z,29.08
2023-03-13T13:53:39.712Z,28.54
2023-03-13T13:56:27.328Z,28.42
2023-03-13T13:58:59.600Z,29.51
2023-03-13T14:01:27.371Z,31.54
2023-03-13T14:04:01.571Z,32.22
2023-03-13T14:06:33.785Z,32.91
2023-03-13T14:09:11.311Z,32.67
2023-03-13T14:11:39.498Z,31.39
2023-03-13T14:14:11.444Z,30.82
2023-03-13T14:16:39.591Z,30.87
2023-03-13T14:19:21.166Z,31.18
2023-03-13T14:21:48.930Z,32.87
2023-03-13T14:24:17.169Z,32.35
2023-03-13T14:26:45.138Z,33.30
2023-03-13T14:29:16.733Z,33.08
2023-03-13T14:31:50.995Z,33.25
2023-03-13T14:34:18.696Z,32.51
2023-03-13T14:37:07.418Z,31.39
2023-03-13T14:39:49.458Z,31.36
2023-03-13T14:42:17.992Z,30.33
2023-03-13T14:44:47.439Z,29.42
2023-03-13T14:47:31.659Z,29.52
2023-03-13T14:50:00.882Z,29.18
2023-03-13T14:52:30.197Z,27.91
2023-03-13T14:55:02.357Z,26.30
2023-03-13T14:57:30.521Z,25.92
2023-03-13T15:00:16.614Z,26.45
2023-03-13T15:02:44.404Z,26.28
2023-03-13T15:05:31.768Z,26.08
2023-03-13T15:07:59.394Z,26.04
2023-03-13T15:10:37.233Z,25.45
2023-03-13T15:13:18.447Z,25.23
2023-03-13T15:15:49.700Z,24.51
2023-03-13T15:18:20.154Z,23.35
2023-03-13T15:20:55.600Z,23.15
2023-03-13T15:23:23.670Z,22.37
2023-03-13T15:25:51.627Z,22.08
2023-03-13T15:28:20.771Z,22.32
2023-03-13T15:30:50.270Z,21.86
2023-03-13T15:33:19.899Z,22.01
2023-03-13T15:35:48.018Z,21.41
2023-03-13T15:38:17.069Z,21.50
2023-03-13T15:40:45.219Z,21.07
2023-03-13T15:43:13.000Z,21.07
2023-03-13T15:45:42.239Z,21.16
2023-03-13T15:48:16.013Z,20.46
2023-03-13T15:50:43.786Z,20.95
2023-03-13T15:53:20.508Z,21.28
2023-03-13T15:55:49.475Z,21.39
2023-03-13T15:58:17.188Z,21.09
2023-03-13T16:00:46.002Z,20.46
2023-03-13T16:03:17.168Z,20.68
2023-03-13T16:05:45.185Z,20.42
2023-03-13T16:08:32.597Z,20.22
2023-03-13T16:11:02.486Z,19.99
2023-03-13T16:13:30.095Z,20.05
2023-03-13T16:15:58.922Z,19.60
2023-03-13T16:18:26.520Z,19.48
2023-03-13T16:20:54.448Z,19.46
2023-03-13T16:23:22.113Z,19.27
2023-03-13T16:25:49.899Z,18.91
2023-03-13T16:28:17.585Z,18.46
2023-03-13T16:30:47.527Z,18.56
2023-03-13T16:33:15.288Z,18.41
2023-03-13T16:35:42.984Z,18.64
2023-03-13T16:38:11.545Z,18.52
2023-03-13T16:40:39.172Z,18.31
2023-03-13T16:43:06.797Z,18.00
2023-03-13T16:45:34.397Z,17.95
2023-03-13T16:48:01.995Z,17.74
2023-03-13T16:50:33.952Z,17.59
2023-03-13T16:53:01.770Z,17.56
2023-03-13T16:55:30.691Z,17.39
2023-03-13T16:57:58.902Z,17.64
2023-03-13T17:00:30.723Z,17.75
2023-03-13T17:02:58.643Z,17.40
2023-03-13T17:05:27.147Z,17.48
2023-03-13T17:07:54.835Z,17.31
2023-03-13T17:10:26.924Z,17.32
2023-03-13T17:12:54.636Z,17.24
2023-03-13T17:15:22.769Z,17.58
2023-03-13T17:17:54.415Z,17.53
2023-03-13T17:20:24.360Z,17.37
2023-03-13T17:22:52.378Z,17.48
2023-03-13T17:25:20.045Z,17.60
2023-03-13T17:27:48.726Z,17.49
2023-03-13T17:30:22.108Z,17.46
2023-03-13T17:32:50.463Z,17.47
2023-03-13T17:35:18.693Z,17.32
2023-03-13T17:37:46.876Z,17.40
2023-03-13T17:40:24.949Z,17.43
2023-03-13T17:42:52.974Z,17.42
2023-03-13T17:45:20.624Z,17.43
2023-03-13T17:47:49.421Z,17.50
2023-03-13T17:50:27.461Z,17.48
2023-03-13T17:52:55.776Z,17.39
2023-03-13T17:55:23.904Z,17.48
2023-03-13T17:57:53.418Z,17.68
2023-03-13T18:00:21.158Z,17.29
2023-03-13T18:02:48.949Z,17.47
2023-03-13T18:05:16.882Z,17.46
2023-03-13T18:07:44.602Z,17.53
2023-03-13T18:10:20.680Z,17.63
2023-03-13T18:12:48.523Z,17.61
2023-03-13T18:15:16.214Z,17.52
2023-03-13T18:17:43.993Z,17.57
2023-03-13T18:20:16.945Z,17.67
2023-03-13T18:22:44.781Z,17.64
2023-03-13T18:25:12.652Z,17.54
2023-03-13T18:27:40.344Z,17.56
2023-03-13T18:30:15.931Z,17.53
2023-03-13T18:32:43.656Z,17.64
2023-03-13T18:35:12.441Z,17.52
2023-03-13T18:37:41.399Z,17.65
2023-03-13T18:40:29.080Z,17.52
2023-03-13T18:42:56.792Z,17.52
2023-03-13T18:45:25.663Z,17.54
2023-03-13T18:47:53.451Z,17.67
2023-03-13T18:50:26.695Z,17.53
2023-03-13T18:52:55.626Z,17.65
2023-03-13T18:55:24.221Z,17.58
2023-03-13T18:57:51.916Z,17.51
2023-03-13T19:00:19.592Z,16.80
2023-03-13T19:02:47.589Z,16.54
2023-03-13T19:05:15.827Z,16.94
2023-03-13T19:07:43.843Z,17.06
2023-03-13T19:10:31.804Z,17.11
2023-03-13T19:12:59.542Z,16.96
2023-03-13T19:15:28.885Z,17.01
2023-03-13T19:18:01.019Z,17.04
2023-03-13T19:20:29.407Z,16.80
2023-03-13T19:23:00.739Z,16.90
2023-03-13T19:25:29.590Z,16.85
2023-03-13T19:27:57.299Z,16.91
2023-03-13T19:30:25.873Z,16.86
2023-03-13T19:32:53.599Z,16.66
2023-03-13T19:35:22.391Z,16.53
2023-03-13T19:37:50.558Z,16.52
2023-03-13T19:40:20.187Z,16.59
2023-03-13T19:42:47.808Z,16.51
2023-03-13T19:45:17.616Z,16.43
2023-03-13T19:47:45.437Z,16.30
2023-03-13T19:50:17.646Z,16.29
2023-03-13T19:52:45.704Z,16.18
2023-03-13T19:55:13.486Z,16.34
2023-03-13T19:57:41.254Z,16.37
2023-03-13T20:00:18.380Z,16.31
2023-03-13T20:02:49.242Z,16.31
2023-03-13T20:05:17.150Z,16.26
2023-03-13T20:07:45.709Z,16.20
2023-03-13T20:10:13.290Z,16.24
2023-03-13T20:12:40.941Z,16.21
2023-03-13T20:15:08.899Z,16.18
2023-03-13T20:17:36.507Z,16.08
2023-03-13T20:20:08.053Z,16.13
2023-03-13T20:22:35.844Z,16.02
2023-03-13T20:25:03.792Z,16.08
2023-03-13T20:27:31.459Z,16.11
2023-03-13T20:29:59.305Z,16.02
2023-03-13T20:32:27.771Z,15.96
2023-03-13T20:34:55.538Z,15.90
2023-03-13T20:37:23.337Z,15.77
2023-03-13T20:39:51.043Z,15.65
2023-03-13T20:42:19.359Z,15.65
2023-03-13T20:44:47.242Z,15.72
2023-03-13T20:47:15.881Z,15.54
2023-03-13T20:49:43.885Z,15.55
2023-03-13T20:52:11.812Z,15.70
2023-03-13T20:54:39.595Z,15.72
2023-03-13T20:57:08.814Z,15.78
2023-03-13T20:59:37.507Z,15.78
2023-03-13T21:02:06.944Z,15.86
2023-03-13T21:04:37.910Z,15.71
2023-03-13T21:07:06.146Z,15.73
2023-03-13T21:09:34.840Z,15.63
2023-03-13T21:12:02.747Z,15.76
2023-03-13T21:14:30.598Z,15.69
2023-03-13T21:16:58.255Z,15.60
2023-03-13T21:19:26.298Z,15.64
2023-03-13T21:21:54.114Z,15.49
2023-03-13T21:24:22.206Z,15.57
2023-03-13T21:26:49.982Z,15.54
2023-03-13T21:29:17.901Z,15.69
2023-03-13T21:31:46.187Z,15.64
2023-03-13T21:34:14.010Z,15.34
2023-03-13T21:36:42.142Z,15.47
2023-03-13T21:39:09.846Z,15.53
2023-03-13T21:41:37.626Z,15.38
2023-03-13T21:44:06.072Z,15.34
2023-03-13T21:46:33.795Z,15.43
2023-03-13T21:49:02.464Z,15.47
2023-03-13T21:51:30.049Z,15.52
2023-03-13T21:53:57.687Z,15.47
2023-03-13T21:56:25.335Z,15.33
2023-03-13T21:58:53.773Z,15.29
2023-03-13T22:01:22.111Z,15.38
2023-03-13T22:03:50.254Z,15.37
2023-03-13T22:06:19.583Z,15.44
2023-03-13T22:08:48.338Z,15.39
2023-03-13T22:11:16.053Z,15.28
2023-03-13T22:13:44.074Z,15.37
2023-03-13T22:16:12.221Z,15.36
2023-03-13T22:18:40.167Z,15.29
2023-03-13T22:21:08.163Z,15.15
2023-03-13T22:23:35.979Z,15.29
2023-03-13T22:26:03.983Z,15.41
2023-03-13T22:28:31.653Z,15.30
2023-03-13T22:31:02.927Z,15.29
2023-03-13T22:33:30.544Z,15.24
2023-03-13T22:35:58.265Z,15.31
2023-03-13T22:38:26.351Z,15.21
2023-03-13T22:41:01.387Z,15.18
2023-03-13T22:43:29.489Z,15.19
2023-03-13T22:45:58.214Z,15.19
2023-03-13T22:48:26.592Z,15.18
2023-03-13T22:51:07.385Z,15.26
2023-03-13T22:53:37.017Z,15.03
2023-03-13T22:56:05.234Z,15.12
2023-03-13T22:58:36.349Z,14.96
2023-03-13T23:01:08.014Z,15.02
2023-03-13T23:03:35.893Z,14.94
2023-03-13T23:06:23.736Z,14.79
2023-03-13T23:08:51.578Z,14.70
2023-03-13T23:11:19.793Z,14.83
2023-03-13T23:13:47.627Z,14.78
2023-03-13T23:16:15.354Z,14.82
2023-03-13T23:18:43.246Z,14.67
2023-03-13T23:21:12.283Z,14.62
2023-03-13T23:23:40.254Z,14.75
2023-03-13T23:26:10.000Z,14.72
2023-03-13T23:28:38.140Z,14.78
2023-03-13T23:31:24.095Z,14.71
2023-03-13T23:33:51.717Z,14.76
2023-03-13T23:36:19.530Z,14.54
2023-03-13T23:38:50.965Z,14.60
2023-03-13T23:41:19.014Z,14.61
2023-03-13T23:43:46.834Z,14.61
2023-03-13T23:46:21.565Z,14.57
2023-03-13T23:48:52.208Z,14.61
2023-03-13T23:51:19.857Z,14.67
2023-03-13T23:53:47.490Z,14.60
2023-03-13T23:56:15.334Z,14.54
2023-03-13T23:58:43.083Z,14.50
